Time;durP1;ratioP1;P1;durP2;ratioP2;P2;SDS_P1;SDS_P2;PMS_P1;PMS_P2;Temp;Humidity;BMP_temperature;BMP_pressure;BME280_temperature;BME280_humidity;BME280_pressure;Samples;Min_cycle;Max_cycle;Signal;HPM_P1;HPM_P2
2022/05/11 00:01:16;;;;;;;13.05;5.68;;;13.40;99.90;;;;;;7398583;19;20018;-68
2022/05/11 00:03:50;;;;;;;7.97;5.40;;;;;;;;;;7398909;19;20045;-68
2022/05/11 00:06:22;;;;;;;10.50;5.40;;;13.60;99.90;;;;;;7396682;19;20038;-68
2022/05/11 00:08:51;;;;;;;10.15;5.68;;;13.30;99.90;;;;;;7401774;19;20015;-68
2022/05/11 00:11:21;;;;;;;15.15;5.75;;;13.30;99.90;;;;;;7396531;19;20039;-68
2022/05/11 00:13:51;;;;;;;10.40;5.05;;;13.50;99.90;;;;;;7395470;19;20034;-68
2022/05/11 00:16:20;;;;;;;12.68;6.03;;;13.30;99.90;;;;;;7397247;19;20011;-67
2022/05/11 00:18:48;;;;;;;9.07;5.38;;;13.30;99.90;;;;;;7399852;19;20022;-67
2022/05/11 00:21:17;;;;;;;14.30;6.38;;;13.20;99.90;;;;;;7397837;19;20397;-67
2022/05/11 00:23:50;;;;;;;9.65;5.38;;;12.90;99.90;;;;;;7397178;19;20021;-67
2022/05/11 00:26:20;;;;;;;9.45;5.32;;;13.20;99.90;;;;;;7399409;19;20014;-67
2022/05/11 00:28:49;;;;;;;10.52;6.28;;;13.20;99.90;;;;;;7396077;19;20046;-68
2022/05/11 00:31:18;;;;;;;10.30;6.55;;;13.20;99.90;;;;;;7392813;19;20023;-68
2022/05/11 00:33:47;;;;;;;10.05;5.65;;;13.20;99.90;;;;;;7400502;19;20506;-68
2022/05/11 00:36:17;;;;;;;11.43;6.32;;;13.30;99.90;;;;;;7400837;19;20066;-68
2022/05/11 00:38:48;;;;;;;11.23;6.35;;;13.20;99.90;;;;;;7395042;19;20022;-68
2022/05/11 00:41:18;;;;;;;11.05;6.00;;;13.20;99.90;;;;;;7397684;19;20086;-68
2022/05/11 00:43:57;;;;;;;9.68;5.72;;;13.30;99.90;;;;;;7398177;19;20019;-68
2022/05/11 00:46:36;;;;;;;10.65;5.97;;;13.30;99.90;;;;;;7399300;19;20010;-68
2022/05/11 00:52:02;;;;;;;10.55;5.47;;;13.20;99.90;;;;;;7393827;19;20015;-67
2022/05/11 00:54:37;;;;;;;11.05;6.07;;;13.30;99.90;;;;;;7395810;19;20081;-68
2022/05/11 00:57:13;;;;;;;11.23;6.43;;;13.20;99.90;;;;;;7393715;19;20023;-67
2022/05/11 00:59:45;;;;;;;14.20;6.15;;;13.20;99.90;;;;;;7399373;19;20031;-67
2022/05/11 01:02:15;;;;;;;10.18;5.35;;;13.10;99.90;;;;;;7398386;19;20024;-68
2022/05/11 01:04:46;;;;;;;11.57;5.47;;;13.20;99.90;;;;;;7394697;19;20085;-67
2022/05/11 01:07:17;;;;;;;9.73;5.60;;;13.20;99.90;;;;;;7398090;19;20021;-68
2022/05/11 01:09:48;;;;;;;9.02;6.10;;;13.20;99.90;;;;;;7396845;19;20014;-68
2022/05/11 01:12:22;;;;;;;10.82;5.82;;;13.10;99.90;;;;;;7392874;19;20075;-67
2022/05/11 01:14:57;;;;;;;10.55;6.03;;;13.30;99.90;;;;;;7397748;19;20019;-68
2022/05/11 01:17:26;;;;;;;9.73;5.85;;;;;;;;;;7396436;19;20014;-68
2022/05/11 01:19:56;;;;;;;13.02;6.30;;;13.20;99.90;;;;;;7397578;19;20021;-68
2022/05/11 01:22:34;;;;;;;9.23;5.53;;;13.30;99.90;;;;;;7395834;19;20030;-67
2022/05/11 01:25:08;;;;;;;12.77;6.20;;;13.30;99.90;;;;;;7396918;19;20347;-68
2022/05/11 01:27:39;;;;;;;12.20;5.82;;;13.30;99.90;;;;;;7395791;19;20010;-68
2022/05/11 01:30:12;;;;;;;9.38;5.22;;;13.30;99.90;;;;;;7396514;19;20015;-68
2022/05/11 01:32:43;;;;;;;10.93;5.97;;;13.20;99.90;;;;;;7396674;19;20010;-68
2022/05/11 01:35:24;;;;;;;11.43;5.53;;;13.20;99.90;;;;;;7397177;19;20018;-67
2022/05/11 01:38:06;;;;;;;10.60;5.35;;;13.30;99.90;;;;;;7398148;19;20041;-67
2022/05/11 01:40:38;;;;;;;12.18;5.38;;;13.30;99.90;;;;;;7393097;19;20484;-67
2022/05/11 01:43:07;;;;;;;8.32;4.80;;;13.30;99.90;;;;;;7394476;19;20018;-68
2022/05/11 01:45:36;;;;;;;11.15;5.20;;;13.40;99.90;;;;;;7395060;19;20002;-68
2022/05/11 01:48:05;;;;;;;9.38;5.20;;;13.20;99.90;;;;;;7397452;19;20098;-69
2022/05/11 01:50:34;;;;;;;12.57;5.60;;;13.20;99.90;;;;;;7395930;19;20155;-68
2022/05/11 01:53:03;;;;;;;9.93;4.80;;;13.30;99.90;;;;;;7397371;19;20496;-67
2022/05/11 01:55:32;;;;;;;10.38;5.40;;;13.00;99.90;;;;;;7392539;19;20358;-67
2022/05/11 01:58:06;;;;;;;9.25;4.80;;;13.20;99.90;;;;;;7394384;19;20372;-68
2022/05/11 02:00:36;;;;;;;7.53;4.63;;;13.30;99.90;;;;;;7393034;19;20021;-68
2022/05/11 02:03:05;;;;;;;10.00;4.93;;;13.50;99.90;;;;;;7394120;19;20371;-67
2022/05/11 02:08:16;;;;;;;10.25;5.07;;;13.30;99.90;;;;;;7398220;19;20034;-67
2022/05/11 02:10:45;;;;;;;14.32;4.90;;;13.30;99.90;;;;;;7397640;19;20014;-68
2022/05/11 02:13:17;;;;;;;9.90;4.97;;;13.30;99.90;;;;;;7399848;19;20006;-68
2022/05/11 02:15:46;;;;;;;10.57;5.07;;;13.40;99.90;;;;;;7397690;19;20018;-68
2022/05/11 02:18:15;;;;;;;8.95;5.18;;;13.40;99.90;;;;;;7402793;19;20010;-67
2022/05/11 02:20:44;;;;;;;7.22;5.05;;;13.10;99.90;;;;;;7398041;19;20346;-67
2022/05/11 02:23:17;;;;;;;9.23;4.90;;;13.30;99.90;;;;;;7398142;19;20106;-67
2022/05/11 02:25:47;;;;;;;9.90;5.07;;;13.40;99.90;;;;;;7397673;19;20006;-67
2022/05/11 02:28:21;;;;;;;7.78;4.70;;;13.30;99.90;;;;;;7403522;19;20015;-68
2022/05/11 02:30:52;;;;;;;9.02;4.85;;;13.40;99.90;;;;;;7399175;19;20010;-68
2022/05/11 02:33:22;;;;;;;11.77;5.40;;;13.40;99.90;;;;;;7399864;19;20015;-68
2022/05/11 02:35:52;;;;;;;8.30;4.57;;;13.50;99.90;;;;;;7399338;19;20481;-68
2022/05/11 02:38:25;;;;;;;8.38;4.40;;;13.50;99.90;;;;;;7398191;19;20017;-67
2022/05/11 02:40:55;;;;;;;10.40;4.90;;;13.40;99.90;;;;;;7399510;19;20115;-68
2022/05/11 02:43:26;;;;;;;9.13;4.90;;;13.40;99.90;;;;;;7399085;19;20019;-68
2022/05/11 02:45:55;;;;;;;9.30;5.47;;;13.40;99.90;;;;;;7399220;19;20010;-69
2022/05/11 02:48:30;;;;;;;8.30;4.90;;;13.50;99.90;;;;;;7398070;19;20021;-68
2022/05/11 02:51:00;;;;;;;11.02;5.28;;;13.60;99.90;;;;;;7397701;19;20022;-68
2022/05/11 02:53:32;;;;;;;8.70;5.65;;;13.60;99.90;;;;;;7397333;19;20407;-67
2022/05/11 02:56:01;;;;;;;10.45;5.78;;;13.40;99.90;;;;;;7398056;19;20379;-67
2022/05/11 02:58:34;;;;;;;11.63;5.68;;;13.40;99.90;;;;;;7253510;19;2835692;-68
2022/05/11 03:01:06;;;;;;;11.05;5.72;;;13.60;99.90;;;;;;7401590;19;20027;-68
2022/05/11 03:03:36;;;;;;;13.48;5.75;;;13.40;99.90;;;;;;7402492;19;20043;-67
2022/05/11 03:06:07;;;;;;;8.70;5.50;;;13.40;99.90;;;;;;7401382;19;20513;-67
2022/05/11 03:08:38;;;;;;;10.57;5.47;;;13.30;99.90;;;;;;7401431;19;20034;-68
2022/05/11 03:11:08;;;;;;;12.65;5.57;;;13.30;99.90;;;;;;7399002;19;20359;-67
2022/05/11 03:13:41;;;;;;;11.55;5.57;;;13.30;99.90;;;;;;7396626;19;20014;-68
2022/05/11 03:16:10;;;;;;;8.93;5.40;;;13.30;99.90;;;;;;7400073;19;20075;-68
2022/05/11 03:18:39;;;;;;;9.32;5.38;;;13.30;99.90;;;;;;7402593;19;20020;-69
2022/05/11 03:21:08;;;;;;;12.88;5.30;;;13.40;99.90;;;;;;7402860;19;20358;-68
2022/05/11 03:23:37;;;;;;;10.27;5.18;;;;;;;;;;7398993;19;20082;-69
2022/05/11 03:26:06;;;;;;;10.82;5.50;;;13.30;99.90;;;;;;7400872;19;20014;-68
2022/05/11 03:28:35;;;;;;;7.85;4.82;;;13.20;99.90;;;;;;7399532;19;20018;-68
2022/05/11 03:31:06;;;;;;;11.23;5.85;;;13.30;99.90;;;;;;7394547;19;20387;-70
2022/05/11 03:36:17;;;;;;;8.95;5.50;;;13.30;99.90;;;;;;7400760;19;20021;-69
2022/05/11 03:38:46;;;;;;;11.35;5.70;;;13.30;99.90;;;;;;7400679;19;20010;-68
2022/05/11 03:41:15;;;;;;;10.15;5.40;;;13.30;99.90;;;;;;7401440;19;20014;-68
2022/05/11 03:43:45;;;;;;;9.10;4.93;;;13.00;99.90;;;;;;7399289;19;20370;-68
2022/05/11 03:46:16;;;;;;;9.88;5.50;;;13.30;99.90;;;;;;7398796;19;20400;-68
2022/05/11 03:48:45;;;;;;;11.23;6.13;;;13.40;99.90;;;;;;7401262;19;20038;-67
2022/05/11 03:51:14;;;;;;;11.50;5.50;;;13.30;99.90;;;;;;7398244;19;20025;-68
2022/05/11 03:53:43;;;;;;;14.35;5.15;;;13.30;99.90;;;;;;7397537;19;20036;-68
2022/05/11 03:56:12;;;;;;;8.85;5.60;;;13.30;99.90;;;;;;7396885;19;20011;-69
2022/05/11 03:58:41;;;;;;;10.25;5.53;;;13.50;99.90;;;;;;7401100;19;20018;-68
2022/05/11 04:01:10;;;;;;;10.85;5.88;;;13.30;99.90;;;;;;7400390;19;20332;-68
2022/05/11 04:03:42;;;;;;;10.00;5.82;;;13.40;99.90;;;;;;7396732;19;20395;-68
2022/05/11 04:06:11;;;;;;;10.90;5.35;;;13.20;99.90;;;;;;7396402;19;20021;-67
2022/05/11 04:08:42;;;;;;;9.45;5.80;;;13.30;99.90;;;;;;7399034;19;20502;-67
2022/05/11 04:11:12;;;;;;;10.27;5.85;;;13.30;99.90;;;;;;7398873;19;20014;-67
2022/05/11 04:13:41;;;;;;;12.27;5.15;;;13.30;99.90;;;;;;7400208;19;20006;-67
2022/05/11 04:16:11;;;;;;;10.07;5.60;;;13.40;99.90;;;;;;7398175;19;20018;-67
2022/05/11 04:18:42;;;;;;;9.35;5.43;;;13.40;99.90;;;;;;7396924;19;20077;-68
2022/05/11 04:21:12;;;;;;;9.40;5.38;;;13.50;99.90;;;;;;7400710;19;20014;-68
2022/05/11 04:23:41;;;;;;;9.07;5.55;;;13.40;99.90;;;;;;7401569;19;20030;-67
2022/05/11 04:26:11;;;;;;;11.48;5.53;;;13.50;99.90;;;;;;7401085;19;20018;-67
2022/05/11 04:28:43;;;;;;;10.32;5.70;;;13.50;99.90;;;;;;7396502;19;20465;-68
2022/05/11 04:31:14;;;;;;;10.05;5.90;;;13.50;99.90;;;;;;7396514;19;20010;-68
2022/05/11 04:33:47;;;;;;;13.02;6.05;;;13.40;99.90;;;;;;7397565;19;20011;-68
2022/05/11 04:36:16;;;;;;;12.73;6.07;;;13.50;99.90;;;;;;7401044;19;20038;-68
2022/05/11 04:38:45;;;;;;;12.50;6.13;;;13.50;99.90;;;;;;7397329;19;20082;-67
2022/05/11 04:41:14;;;;;;;15.35;6.97;;;13.50;99.90;;;;;;7398891;19;20096;-68
2022/05/11 04:43:43;;;;;;;11.43;5.63;;;13.40;99.90;;;;;;7394832;19;20006;-68
2022/05/11 04:46:12;;;;;;;11.95;5.88;;;13.60;99.90;;;;;;7398000;19;20014;-68
2022/05/11 04:48:42;;;;;;;11.52;5.35;;;13.60;99.90;;;;;;7399609;19;20014;-68
2022/05/11 04:51:14;;;;;;;11.55;5.78;;;13.60;99.90;;;;;;7398071;19;20015;-68
2022/05/11 04:53:43;;;;;;;9.00;6.10;;;13.70;99.90;;;;;;7398898;19;20015;-68
2022/05/11 04:56:12;;;;;;;10.13;5.30;;;;;;;;;;7398854;19;20015;-66
2022/05/11 04:58:41;;;;;;;12.10;5.70;;;13.70;99.90;;;;;;7396037;19;20025;-67
2022/05/11 05:01:10;;;;;;;9.75;5.57;;;13.90;99.90;;;;;;7396479;19;20082;-68
2022/05/11 05:03:39;;;;;;;14.02;5.80;;;13.80;99.90;;;;;;7397457;19;20015;-68
2022/05/11 05:06:17;;;;;;;13.47;5.90;;;13.80;99.90;;;;;;7396615;19;20021;-68
2022/05/11 05:08:45;;;;;;;12.15;5.65;;;13.90;99.90;;;;;;7393611;19;20374;-68
2022/05/11 05:11:14;;;;;;;12.77;6.05;;;14.00;99.90;;;;;;7394275;19;20011;-69
2022/05/11 05:13:46;;;;;;;9.93;5.30;;;13.90;99.90;;;;;;7396445;19;20086;-69
2022/05/11 05:16:14;;;;;;;11.82;5.68;;;14.00;99.90;;;;;;7398761;19;20383;-68
2022/05/11 05:18:43;;;;;;;13.00;5.45;;;14.10;99.90;;;;;;7395238;19;20359;-68
2022/05/11 05:21:12;;;;;;;10.57;5.82;;;14.10;99.90;;;;;;7398275;19;20394;-67
2022/05/11 05:23:45;;;;;;;12.98;6.15;;;14.10;99.90;;;;;;7397685;19;20025;-67
2022/05/11 05:26:14;;;;;;;11.20;5.50;;;14.10;99.90;;;;;;7396893;19;20018;-67
2022/05/11 05:31:24;;;;;;;9.73;5.15;;;14.00;99.90;;;;;;7391501;19;20018;-67
2022/05/11 05:33:59;;;;;;;8.90;5.40;;;14.00;99.90;;;;;;7394442;19;20018;-68
2022/05/11 05:36:32;;;;;;;9.57;5.38;;;14.00;99.90;;;;;;7393596;19;20011;-68
2022/05/11 05:39:04;;;;;;;14.60;5.85;;;14.30;99.90;;;;;;7395550;19;20022;-68
2022/05/11 05:41:34;;;;;;;11.35;5.88;;;;;;;;;;7398111;19;20477;-68
2022/05/11 05:44:04;;;;;;;14.77;6.30;;;14.10;99.90;;;;;;7393989;19;20017;-68
2022/05/11 05:46:33;;;;;;;12.20;5.47;;;14.20;99.90;;;;;;7397612;19;20043;-68
2022/05/11 05:49:02;;;;;;;10.65;5.97;;;14.20;99.90;;;;;;7398944;19;20081;-68
2022/05/11 05:51:31;;;;;;;13.10;5.45;;;14.20;99.90;;;;;;7395925;19;20019;-67
2022/05/11 05:54:00;;;;;;;13.70;5.82;;;14.20;99.90;;;;;;7397112;19;20021;-68
2022/05/11 05:56:32;;;;;;;9.43;5.47;;;14.20;99.90;;;;;;7396263;19;20014;-68
2022/05/11 05:59:05;;;;;;;12.75;5.45;;;14.20;99.90;;;;;;7391409;19;20052;-68
2022/05/11 06:01:35;;;;;;;13.20;5.95;;;;;;;;;;7394790;19;20093;-67
2022/05/11 06:04:05;;;;;;;13.02;6.15;;;14.40;99.90;;;;;;7392139;19;20376;-67
2022/05/11 06:06:34;;;;;;;10.98;5.63;;;14.40;99.90;;;;;;7388889;19;20027;-69
2022/05/11 06:09:04;;;;;;;9.90;5.30;;;14.60;99.90;;;;;;7397602;19;20019;-68
2022/05/11 06:11:36;;;;;;;10.50;5.70;;;14.70;99.90;;;;;;7392917;19;20358;-68
2022/05/11 06:14:06;;;;;;;12.48;5.72;;;14.70;99.90;;;;;;7396039;19;20371;-68
2022/05/11 06:16:35;;;;;;;10.73;5.45;;;14.70;99.90;;;;;;7394240;19;20333;-68
2022/05/11 06:19:04;;;;;;;10.02;5.47;;;14.70;99.90;;;;;;7394616;19;20035;-68
2022/05/11 06:21:34;;;;;;;9.27;5.20;;;14.70;99.90;;;;;;7395138;19;20019;-68
2022/05/11 06:24:04;;;;;;;12.23;5.78;;;14.70;99.90;;;;;;7393399;19;20015;-68
2022/05/11 06:26:37;;;;;;;13.65;6.03;;;14.70;99.90;;;;;;7394286;19;20378;-68
2022/05/11 06:29:07;;;;;;;11.48;5.90;;;14.90;99.90;;;;;;7393778;19;20011;-69
2022/05/11 06:31:36;;;;;;;10.80;5.07;;;14.80;99.90;;;;;;7395888;19;20033;-69
2022/05/11 06:34:05;;;;;;;14.07;6.28;;;14.80;99.90;;;;;;7395267;19;20014;-67
2022/05/11 06:36:34;;;;;;;11.40;5.40;;;14.80;99.90;;;;;;7393259;19;20078;-67
2022/05/11 06:39:03;;;;;;;13.15;5.75;;;14.80;99.90;;;;;;7392985;19;20074;-69
2022/05/11 06:41:32;;;;;;;14.68;5.93;;;14.90;99.90;;;;;;7391351;19;19999;-69
2022/05/11 06:44:04;;;;;;;12.43;5.60;;;14.80;99.90;;;;;;7393807;19;20018;-69
2022/05/11 06:46:34;;;;;;;10.15;6.07;;;15.20;99.90;;;;;;7394391;19;20010;-69
2022/05/11 06:49:03;;;;;;;12.45;6.07;;;15.00;99.90;;;;;;7392109;19;20015;-68
2022/05/11 06:51:32;;;;;;;12.55;6.00;;;14.80;99.90;;;;;;7399271;19;20011;-68
2022/05/11 06:59:33;;;;;;;15.75;6.38;;;15.50;99.90;;;;;;7399093;19;20033;-68
2022/05/11 07:02:03;;;;;;;11.10;5.47;;;15.50;99.90;;;;;;7402183;19;20007;-68
2022/05/11 07:04:33;;;;;;;10.75;5.30;;;15.60;99.90;;;;;;7400633;19;20007;-67
2022/05/11 07:07:03;;;;;;;12.02;5.07;;;15.80;99.90;;;;;;7400111;19;20119;-68
2022/05/11 07:09:37;;;;;;;13.23;5.88;;;15.90;99.60;;;;;;7397950;19;20481;-67
2022/05/11 07:12:25;;;;;;;13.57;5.82;;;15.60;99.90;;;;;;7400239;19;20445;-67
2022/05/11 07:14:58;;;;;;;10.07;4.43;;;15.90;99.60;;;;;;7401008;19;20034;-69
2022/05/11 07:17:30;;;;;;;11.43;5.50;;;16.00;99.90;;;;;;7400069;19;20007;-68
2022/05/11 07:20:00;;;;;;;12.75;6.03;;;15.80;99.30;;;;;;7401646;19;20011;-68
2022/05/11 07:22:29;;;;;;;12.93;4.78;;;15.60;99.30;;;;;;7398822;19;20010;-69
2022/05/11 07:24:58;;;;;;;14.07;5.45;;;15.60;99.20;;;;;;7398078;19;20150;-68
2022/05/11 07:27:27;;;;;;;10.52;5.70;;;15.50;99.30;;;;;;7401748;19;20015;-68
2022/05/11 07:29:58;;;;;;;12.30;5.55;;;16.10;99.90;;;;;;7399915;19;20014;-68
2022/05/11 07:32:28;;;;;;;11.15;5.57;;;15.70;99.90;;;;;;7398160;19;20079;-68
2022/05/11 07:34:57;;;;;;;13.55;5.78;;;15.80;99.90;;;;;;7402366;19;20015;-68
2022/05/11 07:37:26;;;;;;;12.55;5.25;;;16.10;99.90;;;;;;7403576;19;20416;-68
2022/05/11 07:39:56;;;;;;;13.73;5.50;;;16.20;99.70;;;;;;7401925;19;20095;-68
2022/05/11 07:42:25;;;;;;;12.40;5.50;;;16.10;98.50;;;;;;7399432;19;20026;-68
2022/05/11 07:44:54;;;;;;;12.75;5.03;;;16.30;98.40;;;;;;7399345;19;20520;-68
2022/05/11 07:47:27;;;;;;;11.68;5.30;;;16.20;99.20;;;;;;7403116;19;20014;-68
2022/05/11 07:49:56;;;;;;;16.48;5.47;;;16.20;98.10;;;;;;7400339;19;20082;-68
2022/05/11 07:52:25;;;;;;;13.48;4.75;;;16.60;97.80;;;;;;7398608;19;20504;-68
2022/05/11 07:54:54;;;;;;;9.80;4.50;;;16.40;98.60;;;;;;7398090;19;20014;-68
2022/05/11 08:00:07;;;;;;;9.85;4.50;;;16.40;97.10;;;;;;7397399;19;20013;-68
2022/05/11 08:02:41;;;;;;;11.15;4.40;;;16.50;96.80;;;;;;7398206;19;20019;-68
2022/05/11 08:05:15;;;;;;;10.93;4.80;;;16.80;96.80;;;;;;7398546;19;20002;-68
2022/05/11 08:07:47;;;;;;;13.45;4.78;;;16.90;97.70;;;;;;7397961;19;20067;-68
2022/05/11 08:10:18;;;;;;;9.95;4.57;;;16.90;96.40;;;;;;7400992;19;20018;-68
2022/05/11 08:12:49;;;;;;;8.65;4.40;;;16.60;96.40;;;;;;7401352;19;20510;-68
2022/05/11 08:15:21;;;;;;;9.15;4.03;;;16.90;95.80;;;;;;7398934;19;20014;-68
2022/05/11 08:17:54;;;;;;;12.07;4.70;;;17.10;96.10;;;;;;7401244;19;20014;-69
2022/05/11 08:20:25;;;;;;;9.60;3.80;;;17.00;95.90;;;;;;7399691;19;20023;-69
2022/05/11 08:22:55;;;;;;;8.60;3.70;;;17.00;95.70;;;;;;7397533;19;20006;-68
2022/05/11 08:25:26;;;;;;;7.22;3.67;;;16.70;97.00;;;;;;7399293;19;20040;-66
2022/05/11 08:27:56;;;;;;;8.40;4.10;;;17.00;95.80;;;;;;7397682;19;19998;-67
2022/05/11 08:33:27;;;;;;;7.28;4.15;;;17.20;95.50;;;;;;7395671;19;20014;-67
2022/05/11 08:35:59;;;;;;;9.73;3.08;;;17.60;95.40;;;;;;7397036;19;20010;-67
2022/05/11 08:38:31;;;;;;;7.85;3.53;;;17.50;95.90;;;;;;7399872;19;20122;-67
2022/05/11 08:41:05;;;;;;;8.68;3.08;;;17.70;94.70;;;;;;7397245;19;20353;-67
2022/05/11 08:43:36;;;;;;;9.93;4.45;;;17.60;94.90;;;;;;7397173;19;20010;-68
2022/05/11 08:46:13;;;;;;;10.25;3.90;;;17.40;94.70;;;;;;7399660;19;20372;-68
2022/05/11 08:48:58;;;;;;;5.43;2.58;;;17.70;95.70;;;;;;7395898;19;20109;-68
2022/05/11 08:51:34;;;;;;;9.23;3.03;;;17.80;94.20;;;;;;7401031;19;20374;-68
2022/05/11 08:54:14;;;;;;;11.73;4.00;;;18.00;93.90;;;;;;7395396;19;20010;-68
2022/05/11 08:56:45;;;;;;;15.75;3.88;;;18.10;93.40;;;;;;7399047;19;20015;-69
2022/05/11 08:59:20;;;;;;;7.97;2.90;;;18.00;93.20;;;;;;7394945;19;20020;-68
2022/05/11 09:01:54;;;;;;;9.13;4.07;;;18.00;93.30;;;;;;7393312;19;20361;-68
2022/05/11 09:04:43;;;;;;;8.23;3.33;;;17.90;93.80;;;;;;7399821;19;20094;-69
2022/05/11 09:07:13;;;;;;;10.40;3.85;;;18.00;93.70;;;;;;7396113;19;20468;-69
2022/05/11 09:09:45;;;;;;;8.23;3.40;;;18.10;93.70;;;;;;7394163;19;20010;-67
2022/05/11 09:12:15;;;;;;;9.35;3.85;;;18.20;93.40;;;;;;7395936;19;20358;-67
2022/05/11 09:14:49;;;;;;;7.53;3.03;;;18.40;93.30;;;;;;7396258;19;20018;-67
2022/05/11 09:17:27;;;;;;;8.32;3.85;;;18.10;93.40;;;;;;7398240;19;20022;-67
2022/05/11 09:20:08;;;;;;;7.40;2.65;;;18.40;93.10;;;;;;7397466;19;20394;-67
2022/05/11 09:22:40;;;;;;;9.35;2.85;;;18.40;92.90;;;;;;7399409;19;20035;-67
2022/05/11 09:25:21;;;;;;;11.52;3.35;;;18.10;92.90;;;;;;7395839;19;20449;-68
2022/05/11 09:27:51;;;;;;;7.68;2.83;;;18.30;92.60;;;;;;7396490;19;20632;-67
2022/05/11 09:30:24;;;;;;;9.63;2.78;;;18.40;92.90;;;;;;7397700;19;20103;-67
2022/05/11 09:32:55;;;;;;;7.75;2.67;;;18.50;92.60;;;;;;7397752;19;20014;-68
2022/05/11 09:35:40;;;;;;;7.45;2.97;;;18.80;92.50;;;;;;7399850;19;20006;-68
2022/05/11 09:38:12;;;;;;;10.30;2.85;;;18.70;92.00;;;;;;7394930;19;20078;-68
2022/05/11 09:41:07;;;;;;;7.82;2.20;;;18.70;91.80;;;;;;7396127;19;20074;-68
2022/05/11 09:43:39;;;;;;;11.20;2.57;;;18.80;91.30;;;;;;7394469;19;20007;-68
2022/05/11 09:46:24;;;;;;;7.75;2.35;;;18.90;91.10;;;;;;7397518;19;20015;-68
2022/05/11 09:49:04;;;;;;;8.93;1.88;;;18.70;90.90;;;;;;7394739;19;20494;-68
2022/05/11 09:51:44;;;;;;;12.13;2.55;;;18.70;90.90;;;;;;7394717;19;20021;-68
2022/05/11 09:54:32;;;;;;;7.00;1.80;;;19.20;90.80;;;;;;7390699;19;20026;-68
2022/05/11 09:57:04;;;;;;;11.57;2.33;;;18.60;90.20;;;;;;7391230;19;20024;-68
2022/05/11 09:59:36;;;;;;;7.40;2.35;;;18.90;90.80;;;;;;7396050;19;20007;-68
2022/05/11 10:02:20;;;;;;;9.32;2.40;;;18.60;90.80;;;;;;7393784;19;20027;-69
2022/05/11 10:05:05;;;;;;;11.82;3.03;;;19.10;91.30;;;;;;7398174;19;20042;-67
2022/05/11 10:07:44;;;;;;;8.70;2.00;;;19.40;91.00;;;;;;7393277;19;20013;-68
2022/05/11 10:10:25;;;;;;;8.75;2.08;;;19.30;90.60;;;;;;7392397;19;20027;-68
2022/05/11 10:12:58;;;;;;;7.88;2.15;;;19.00;90.30;;;;;;7394824;19;20018;-70
2022/05/11 10:24:08;;;;;;;5.35;1.65;;;19.00;90.40;;;;;;7394474;19;20354;-68
2022/05/11 10:26:43;;;;;;;7.03;1.80;;;19.00;89.20;;;;;;7398314;19;20158;-68
2022/05/11 10:29:21;;;;;;;8.77;2.25;;;19.30;89.70;;;;;;7398585;19;20018;-69
2022/05/11 10:32:02;;;;;;;10.52;2.10;;;18.80;90.10;;;;;;7399944;19;20019;-68
2022/05/11 10:34:46;;;;;;;11.32;2.63;;;18.80;90.50;;;;;;7399239;19;20054;-68
2022/05/11 10:37:25;;;;;;;8.23;2.22;;;19.30;91.00;;;;;;7401084;19;20085;-68
2022/05/11 10:40:17;;;;;;;9.50;2.20;;;19.20;90.60;;;;;;7401821;19;20015;-68
2022/05/11 10:42:51;;;;;;;6.57;1.88;;;19.50;90.10;;;;;;7401179;19;20015;-67
2022/05/11 10:45:23;;;;;;;5.60;1.77;;;19.80;88.50;;;;;;7399149;19;20474;-68
2022/05/11 10:48:19;;;;;;;7.97;2.08;;;19.70;88.40;;;;;;7397643;19;20010;-67
2022/05/11 10:50:58;;;;;;;9.30;2.17;;;20.30;86.20;;;;;;7397435;19;20014;-67
2022/05/11 10:53:37;;;;;;;9.18;1.88;;;19.70;87.00;;;;;;7398929;19;20019;-67
2022/05/11 10:56:28;;;;;;;7.78;2.10;;;19.40;87.10;;;;;;7402282;19;20022;-68
2022/05/11 10:59:24;;;;;;;9.00;2.10;;;19.60;86.20;;;;;;7398421;19;20018;-69
2022/05/11 11:02:13;;;;;;;8.48;1.90;;;20.20;85.60;;;;;;7397601;19;20022;-68
2022/05/11 11:04:58;;;;;;;5.78;1.92;;;20.50;85.20;;;;;;7401751;19;20015;-68
2022/05/11 11:07:34;;;;;;;8.25;2.10;;;19.10;82.90;;;;;;7399871;19;20010;-69
2022/05/11 11:10:19;;;;;;;5.18;1.42;;;19.90;85.10;;;;;;7399264;19;20017;-68
2022/05/11 11:13:26;;;;;;;7.18;1.90;;;20.20;82.60;;;;;;7402297;19;20019;-68
2022/05/11 11:15:57;;;;;;;9.27;1.85;;;20.40;83.00;;;;;;7396848;19;20038;-68
2022/05/11 11:18:34;;;;;;;6.25;1.63;;;20.20;83.30;;;;;;7397989;19;20512;-68
2022/05/11 11:21:04;;;;;;;6.40;1.48;;;20.30;83.30;;;;;;7402452;19;20010;-68
2022/05/11 11:23:36;;;;;;;6.15;1.60;;;20.30;82.80;;;;;;7397954;19;20014;-68
2022/05/11 11:26:08;;;;;;;8.55;1.70;;;20.30;82.70;;;;;;7400120;19;20018;-68
2022/05/11 11:29:07;;;;;;;9.02;1.70;;;20.40;82.20;;;;;;7398525;19;20070;-67
2022/05/11 11:32:09;;;;;;;4.75;1.30;;;21.00;79.00;;;;;;7397103;19;20014;-67
2022/05/11 11:34:41;;;;;;;6.43;1.50;;;21.00;76.80;;;;;;7397217;19;20014;-67
2022/05/11 11:37:49;;;;;;;5.88;1.40;;;21.00;78.40;;;;;;7399789;19;20019;-67
2022/05/11 11:40:33;;;;;;;5.32;1.42;;;21.20;76.70;;;;;;7399003;19;20018;-67
2022/05/11 11:43:38;;;;;;;6.63;1.50;;;21.70;75.70;;;;;;7400826;19;20014;-67
2022/05/11 11:46:05;;;;;;;9.18;1.90;;;21.40;74.10;;;;;;7400724;19;20015;-68
2022/05/11 11:48:41;;;;;;;3.17;1.35;;;21.10;75.60;;;;;;7396743;19;20086;-69
2022/05/11 11:51:34;;;;;;;5.10;1.40;;;21.10;74.50;;;;;;7402750;19;20482;-67
2022/05/11 11:54:06;;;;;;;6.95;1.40;;;21.30;72.80;;;;;;7397084;19;20032;-67
2022/05/11 11:56:51;;;;;;;6.00;1.60;;;21.50;73.00;;;;;;7396539;19;20477;-68
2022/05/11 11:59:37;;;;;;;6.95;1.63;;;21.70;72.50;;;;;;7398042;19;20038;-67
2022/05/11 12:02:29;;;;;;;5.72;1.42;;;22.10;71.60;;;;;;7401239;19;20470;-67
2022/05/11 12:05:13;;;;;;;8.02;1.65;;;21.60;71.30;;;;;;7397146;19;20007;-67
2022/05/11 12:16:04;;;;;;;;;;;22.80;70.60;;;;;;7398763;19;20010;-68
2022/05/11 12:18:35;;;;;;;7.97;1.50;;;22.60;67.60;;;;;;7399528;19;19915;-68
2022/05/11 12:21:11;;;;;;;5.57;1.60;;;22.20;69.40;;;;;;7398646;19;20023;-68
2022/05/11 12:23:49;;;;;;;4.15;1.48;;;22.60;68.70;;;;;;7399562;19;20014;-67
2022/05/11 12:26:25;;;;;;;5.80;1.80;;;22.30;68.40;;;;;;7399532;19;20031;-67
2022/05/11 12:29:54;;;;;;;4.38;1.50;;;22.40;67.60;;;;;;7397120;19;20010;-67
2022/05/11 12:31:55;;;;;;;4.93;1.40;;;22.20;68.00;;;;;;7395531;19;20021;-68
2022/05/11 12:34:25;;;;;;;6.57;1.45;;;22.30;68.40;;;;;;7398350;19;20031;-67
2022/05/11 12:36:57;;;;;;;4.25;1.35;;;22.20;68.50;;;;;;7400090;19;20015;-67
2022/05/11 12:39:35;;;;;;;4.80;1.20;;;22.20;65.10;;;;;;7400515;19;20019;-67
2022/05/11 12:42:05;;;;;;;5.60;1.70;;;22.60;64.30;;;;;;7397118;19;20006;-67
2022/05/11 12:44:38;;;;;;;8.90;1.83;;;22.50;66.00;;;;;;7396296;19;20006;-66
2022/05/11 12:47:09;;;;;;;5.55;1.75;;;22.30;65.70;;;;;;7394233;19;20022;-67
2022/05/11 12:49:38;;;;;;;6.20;1.35;;;22.30;65.90;;;;;;7397657;19;20018;-67
2022/05/11 12:52:20;;;;;;;4.72;1.55;;;22.50;64.40;;;;;;7395787;19;20015;-67
2022/05/11 12:55:00;;;;;;;5.80;1.35;;;23.00;63.40;;;;;;7394616;19;20007;-67
2022/05/11 12:57:41;;;;;;;6.22;1.40;;;22.90;62.60;;;;;;7395197;19;20014;-67
2022/05/11 13:00:18;;;;;;;6.55;1.80;;;23.00;61.70;;;;;;7396134;19;20066;-67
2022/05/11 13:02:49;;;;;;;6.13;1.85;;;22.00;63.40;;;;;;7399299;19;20362;-67
2022/05/11 13:05:20;;;;;;;8.15;1.92;;;22.00;64.70;;;;;;7395165;19;20011;-67
2022/05/11 13:07:57;;;;;;;2.92;1.20;;;22.90;64.80;;;;;;7396469;19;19998;-67
2022/05/11 13:10:32;;;;;;;10.88;1.77;;;22.80;64.30;;;;;;7399786;19;20010;-67
2022/05/11 13:13:04;;;;;;;6.18;1.67;;;22.20;64.90;;;;;;7395748;19;20003;-67
2022/05/11 13:15:39;;;;;;;6.45;1.65;;;22.80;65.30;;;;;;7393588;19;20022;-68
2022/05/11 13:18:12;;;;;;;7.25;1.70;;;23.60;64.00;;;;;;7395816;19;20103;-67
2022/05/11 13:20:43;;;;;;;6.47;1.70;;;23.20;63.80;;;;;;7396478;19;20057;-68
2022/05/11 13:23:34;;;;;;;6.80;1.85;;;23.20;63.00;;;;;;7395972;19;20006;-67
2022/05/11 13:26:05;;;;;;;7.50;1.60;;;22.30;65.00;;;;;;7395756;19;20014;-67
2022/05/11 13:28:38;;;;;;;5.50;1.50;;;22.10;65.60;;;;;;7395389;19;20010;-67
2022/05/11 13:31:26;;;;;;;4.15;1.25;;;22.90;65.10;;;;;;7394120;19;20026;-67
2022/05/11 13:33:55;;;;;;;7.82;1.85;;;22.90;62.70;;;;;;7395161;19;20469;-67
2022/05/11 13:36:28;;;;;;;6.28;1.73;;;22.50;65.50;;;;;;7395775;19;20003;-67
2022/05/11 13:39:03;;;;;;;7.30;1.55;;;21.90;65.80;;;;;;7393329;19;20462;-66
2022/05/11 13:41:38;;;;;;;5.88;1.50;;;21.70;67.30;;;;;;7394792;19;20010;-67
2022/05/11 13:44:26;;;;;;;5.65;1.50;;;22.50;66.70;;;;;;7397975;19;20007;-67
2022/05/11 13:49:41;;;;;;;9.20;1.70;;;22.60;64.70;;;;;;7392848;19;20015;-67
2022/05/11 13:52:13;;;;;;;9.02;2.13;;;23.20;63.90;;;;;;7394637;19;20010;-67
2022/05/11 13:54:56;;;;;;;7.75;1.90;;;22.60;65.40;;;;;;7393968;19;20010;-67
2022/05/11 13:57:32;;;;;;;8.10;2.05;;;22.20;66.90;;;;;;7394260;19;20007;-67